createdAt,value
2022-10-17T00:02:35.953Z,100991.09
2022-10-17T00:07:37.958Z,100996.47
2022-10-17T00:12:39.413Z,100989.44
2022-10-17T00:17:41.984Z,100990.28
2022-10-17T00:22:43.688Z,100993.88
2022-10-17T00:27:45.634Z,100996.16
2022-10-17T00:32:47.400Z,101006.03
2022-10-17T00:37:49.139Z,101013.56
2022-10-17T00:42:53.070Z,101008.13
2022-10-17T00:48:08.479Z,101017.78
2022-10-17T00:53:11.043Z,101026.06
2022-10-17T00:58:12.549Z,101020.63
2022-10-17T01:03:14.483Z,101017.44
2022-10-17T01:08:16.324Z,101014.47
2022-10-17T01:13:46.800Z,101018.91
2022-10-17T01:19:02.532Z,101019.03
2022-10-17T01:24:41.203Z,101019.53
2022-10-17T01:30:09.641Z,101012.13
2022-10-17T01:35:28.960Z,101018.19
2022-10-17T01:40:45.782Z,101014.72
2022-10-17T01:45:57.212Z,101024.59
2022-10-17T01:51:07.904Z,101025.09
2022-10-17T01:56:13.215Z,101015.09
2022-10-17T02:01:16.988Z,101014.72
2022-10-17T02:06:18.654Z,101009.28
2022-10-17T02:11:25.080Z,101010.00
2022-10-17T02:16:41.388Z,101005.78
2022-10-17T02:22:18.000Z,101010.25
2022-10-17T02:27:46.795Z,101009.16
2022-10-17T02:32:55.393Z,101020.09
2022-10-17T02:37:58.303Z,101029.25
2022-10-17T02:43:03.653Z,101035.63
2022-10-17T02:48:15.426Z,101044.06
2022-10-17T02:53:27.609Z,101039.63
2022-10-17T02:58:33.235Z,101032.34
2022-10-17T03:03:34.656Z,101048.00
2022-10-17T03:08:36.068Z,101058.59
2022-10-17T03:13:39.724Z,101052.19
2022-10-17T03:18:43.486Z,101056.63
2022-10-17T03:23:48.079Z,101054.66
2022-10-17T03:28:52.028Z,101054.78
2022-10-17T03:33:55.833Z,101064.78
2022-10-17T03:38:57.221Z,101059.56
2022-10-17T03:43:58.631Z,101066.63
2022-10-17T03:49:00.249Z,101065.91
2022-10-17T03:54:01.887Z,101076.72
2022-10-17T03:59:03.368Z,101068.81
2022-10-17T04:04:04.961Z,101078.91
2022-10-17T04:09:07.095Z,101083.84
2022-10-17T04:14:09.954Z,101077.88
2022-10-17T04:19:13.733Z,101081.34
2022-10-17T04:24:15.244Z,101084.28
2022-10-17T04:29:17.241Z,101085.16
2022-10-17T04:34:24.040Z,101094.38
2022-10-17T04:39:25.814Z,101084.22
2022-10-17T04:44:30.727Z,101084.16
2022-10-17T04:49:32.240Z,101092.94
2022-10-17T04:54:33.642Z,101089.31
2022-10-17T04:59:35.052Z,101089.41
2022-10-17T05:04:36.447Z,101087.00
2022-10-17T05:09:37.919Z,101094.09
2022-10-17T05:14:39.307Z,101102.78
2022-10-17T05:19:40.707Z,101105.38
2022-10-17T05:24:42.156Z,101097.56
2022-10-17T05:29:43.548Z,101113.41
2022-10-17T05:34:44.996Z,101117.09
2022-10-17T05:39:50.617Z,101126.19
2022-10-17T05:44:53.093Z,101124.66
2022-10-17T05:49:54.509Z,101142.88
2022-10-17T05:54:56.005Z,101158.22
2022-10-17T05:59:57.492Z,101152.38
2022-10-17T06:04:58.900Z,101155.47
2022-10-17T06:10:00.339Z,101159.47
2022-10-17T06:15:01.918Z,101164.19
2022-10-17T06:20:04.012Z,101156.81
2022-10-17T06:25:05.902Z,101172.66
2022-10-17T06:30:07.939Z,101175.94
2022-10-17T06:35:09.507Z,101178.94
2022-10-17T06:40:12.337Z,101180.50
2022-10-17T06:45:14.163Z,101174.44
2022-10-17T06:50:15.645Z,101180.50
2022-10-17T06:55:21.314Z,101189.69
2022-10-17T07:00:26.691Z,101187.00
2022-10-17T07:05:28.079Z,101199.19
2022-10-17T07:10:29.653Z,101201.56
2022-10-17T07:15:32.401Z,101203.72
2022-10-17T07:20:34.140Z,101206.69
2022-10-17T07:25:40.030Z,101205.69
2022-10-17T07:30:42.488Z,101203.44
2022-10-17T07:35:44.013Z,101213.94
2022-10-17T07:40:45.488Z,101207.75
2022-10-17T07:45:46.883Z,101217.31
2022-10-17T07:50:48.805Z,101209.75
2022-10-17T07:55:51.357Z,101211.50
2022-10-17T08:00:52.955Z,101216.06
2022-10-17T08:05:58.130Z,101224.91
2022-10-17T08:11:05.439Z,101228.06
2022-10-17T08:16:10.311Z,101213.72
2022-10-17T08:21:13.417Z,101211.69
2022-10-17T08:26:17.240Z,101217.59
2022-10-17T08:31:20.127Z,101215.41
2022-10-17T08:36:21.698Z,101216.53
2022-10-17T08:41:44.920Z,101208.91
2022-10-17T08:46:50.129Z,101216.06
2022-10-17T08:52:02.844Z,101205.34
2022-10-17T08:57:04.353Z,101202.94
2022-10-17T09:02:43.282Z,101205.88
2022-10-17T09:08:04.041Z,101195.69
2022-10-17T09:13:23.860Z,101190.44
2022-10-17T09:18:35.811Z,101207.97
2022-10-17T09:23:59.518Z,101197.22
2022-10-17T09:29:27.702Z,101200.47
2022-10-17T09:34:33.008Z,101191.31
2022-10-17T09:39:34.484Z,101194.84
2022-10-17T09:45:04.700Z,101193.22
2022-10-17T09:50:20.758Z,101197.41
2022-10-17T09:55:50.730Z,101190.97
2022-10-17T10:00:52.252Z,101196.81
2022-10-17T10:06:13.902Z,101203.38
2022-10-17T10:11:16.013Z,101198.41
2022-10-17T10:16:31.405Z,101194.50
2022-10-17T10:21:33.948Z,101192.53
2022-10-17T10:26:45.931Z,101190.25
2022-10-17T10:31:48.746Z,101197.03
2022-10-17T10:37:02.106Z,101190.84
2022-10-17T10:42:08.188Z,101193.56
2022-10-17T10:47:18.583Z,101188.78
2022-10-17T10:52:35.340Z,101185.69
2022-10-17T10:57:37.742Z,101174.00
2022-10-17T11:02:47.502Z,101178.09
2022-10-17T11:08:24.460Z,101176.19
2022-10-17T11:13:37.623Z,101166.06
2022-10-17T11:18:45.586Z,101166.75
2022-10-17T11:23:51.395Z,101163.28
2022-10-17T11:28:54.527Z,101161.22
2022-10-17T11:33:58.983Z,101153.28
2022-10-17T11:39:06.079Z,101147.75
2022-10-17T11:44:25.004Z,101149.59
2022-10-17T11:49:38.257Z,101147.00
2022-10-17T11:54:48.983Z,101142.13
2022-10-17T11:59:56.218Z,101136.19
2022-10-17T12:05:06.946Z,101123.38
2022-10-17T12:10:37.396Z,101120.38
2022-10-17T12:15:38.927Z,101117.66
2022-10-17T12:20:40.443Z,101121.94
2022-10-17T12:25:52.167Z,101105.38
2022-10-17T12:30:58.406Z,101109.84
2022-10-17T12:36:27.257Z,101119.94
2022-10-17T12:41:40.806Z,101116.16
2022-10-17T12:46:50.907Z,101114.44
2022-10-17T12:52:16.944Z,101113.47
2022-10-17T12:57:40.149Z,101103.53
2022-10-17T13:02:41.987Z,101097.66
2022-10-17T13:07:47.917Z,101100.47
2022-10-17T13:12:51.198Z,101112.44
2022-10-17T13:18:00.307Z,101111.13
2022-10-17T13:23:02.005Z,101103.44
2022-10-17T13:28:12.308Z,101107.59
2022-10-17T13:33:28.473Z,101099.50
2022-10-17T13:38:34.821Z,101084.00
2022-10-17T13:43:38.906Z,101083.31
2022-10-17T13:48:40.501Z,101080.63
2022-10-17T13:53:44.374Z,101088.22
2022-10-17T13:58:51.225Z,101085.16
2022-10-17T14:04:07.254Z,101094.81
2022-10-17T14:09:28.750Z,101080.34
2022-10-17T14:14:37.511Z,101095.81
2022-10-17T14:20:05.811Z,101091.34
2022-10-17T14:25:37.139Z,101087.91
2022-10-17T14:30:57.752Z,101072.00
2022-10-17T14:36:01.877Z,101080.97
2022-10-17T14:41:40.928Z,101081.69
2022-10-17T14:46:31.123Z,101090.00
2022-10-17T14:51:44.722Z,101083.78
2022-10-17T14:56:55.801Z,101086.41
2022-10-17T15:01:57.233Z,101081.47
2022-10-17T15:06:58.687Z,101080.81
2022-10-17T15:12:02.675Z,101079.44
2022-10-17T15:17:12.517Z,101075.69
2022-10-17T15:22:16.040Z,101072.75
2022-10-17T15:27:22.946Z,101079.25
2022-10-17T15:32:24.422Z,101076.34
2022-10-17T15:37:25.964Z,101070.78
2022-10-17T15:42:29.533Z,101062.56
2022-10-17T15:47:35.327Z,101072.63
2022-10-17T15:52:36.795Z,101077.84
2022-10-17T15:57:42.769Z,101076.38
2022-10-17T16:02:44.738Z,101083.84
2022-10-17T16:07:46.811Z,101087.09
2022-10-17T16:12:49.910Z,101080.22
2022-10-17T16:17:52.957Z,101079.91
2022-10-17T16:22:59.844Z,101079.84
2022-10-17T16:28:01.647Z,101079.72
2022-10-17T16:33:03.163Z,101081.69
2022-10-17T16:38:06.308Z,101074.75
2022-10-17T16:43:12.217Z,101066.06
2022-10-17T16:48:14.443Z,101080.56
2022-10-17T16:53:15.837Z,101070.75
2022-10-17T16:58:17.300Z,101076.59
2022-10-17T17:03:18.770Z,101080.09
2022-10-17T17:08:20.228Z,101072.38
2022-10-17T17:13:21.646Z,101086.66
2022-10-17T17:18:23.104Z,101081.25
2022-10-17T17:23:24.567Z,101087.88
2022-10-17T17:28:26.743Z,101080.34
2022-10-17T17:33:29.939Z,101084.72
2022-10-17T17:38:33.655Z,101080.16
2022-10-17T17:43:35.764Z,101084.53
2022-10-17T17:48:41.040Z,101076.47
2022-10-17T17:53:42.561Z,101077.53
2022-10-17T17:58:46.465Z,101083.22
2022-10-17T18:03:49.757Z,101086.97
2022-10-17T18:08:54.235Z,101082.66
2022-10-17T18:14:07.113Z,101095.00
2022-10-17T18:19:11.031Z,101090.31
2022-10-17T18:24:12.445Z,101094.63
2022-10-17T18:29:13.844Z,101094.94
2022-10-17T18:34:15.263Z,101084.31
2022-10-17T18:39:16.733Z,101094.72
2022-10-17T18:44:18.170Z,101095.13
2022-10-17T18:49:21.687Z,101092.28
2022-10-17T18:54:24.408Z,101088.56
2022-10-17T18:59:25.862Z,101090.63
2022-10-17T19:04:27.421Z,101093.66
2022-10-17T19:09:28.883Z,101091.97
2022-10-17T19:14:30.624Z,101092.81
2022-10-17T19:19:32.477Z,101099.28
2022-10-17T19:24:33.885Z,101096.69
2022-10-17T19:29:35.314Z,101095.16
2022-10-17T19:34:37.284Z,101103.22
2022-10-17T19:39:38.866Z,101099.78
2022-10-17T19:44:40.264Z,101096.63
2022-10-17T19:49:42.903Z,101103.00
2022-10-17T19:54:45.836Z,101107.00
2022-10-17T19:59:48.015Z,101103.28
2022-10-17T20:05:06.298Z,101101.44
2022-10-17T20:10:12.307Z,101096.97
2022-10-17T20:15:13.871Z,101108.19
2022-10-17T20:20:15.434Z,101113.34
2022-10-17T20:25:17.156Z,101104.31
2022-10-17T20:30:18.755Z,101115.94
2022-10-17T20:35:20.188Z,101122.56
2022-10-17T20:40:36.893Z,101132.78
2022-10-17T20:45:50.714Z,101146.13
2022-10-17T20:50:53.199Z,101133.44
2022-10-17T20:56:02.351Z,101136.31
2022-10-17T21:01:08.588Z,101140.88
2022-10-17T21:06:11.214Z,101137.28
2022-10-17T21:11:19.097Z,101119.03
2022-10-17T21:16:20.708Z,101128.25
2022-10-17T21:21:26.652Z,101129.47
2022-10-17T21:26:28.749Z,101138.56
2022-10-17T21:31:30.227Z,101124.47
2022-10-17T21:36:31.769Z,101126.16
2022-10-17T21:41:33.333Z,101131.00
2022-10-17T21:46:34.744Z,101138.19
2022-10-17T21:51:36.182Z,101134.50
2022-10-17T21:56:37.613Z,101131.59
2022-10-17T22:01:41.412Z,101130.50
2022-10-17T22:06:45.035Z,101120.22
2022-10-17T22:11:48.969Z,101107.59
2022-10-17T22:16:50.530Z,101117.38
2022-10-17T22:21:52.514Z,101113.94
2022-10-17T22:26:54.009Z,101113.94
2022-10-17T22:31:55.412Z,101120.22
2022-10-17T22:36:56.806Z,101108.38
2022-10-17T22:41:58.198Z,101105.53
2022-10-17T22:46:59.645Z,101106.41
2022-10-17T22:52:01.068Z,101103.28
2022-10-17T22:57:02.505Z,101103.16
2022-10-17T23:02:04.438Z,101110.09
2022-10-17T23:07:11.203Z,101109.47
2022-10-17T23:12:12.596Z,101109.53
2022-10-17T23:17:14.483Z,101104.63
2022-10-17T23:22:15.924Z,101102.78
2022-10-17T23:27:17.412Z,101102.78
2022-10-17T23:32:20.542Z,101089.81
2022-10-17T23:37:22.068Z,101087.25
2022-10-17T23:42:23.653Z,101084.44
2022-10-17T23:47:25.112Z,101085.97
2022-10-17T23:52:26.521Z,101079.59
2022-10-17T23:57:28.094Z,101086.66
